Time;durP1;ratioP1;P1;durP2;ratioP2;P2;SDS_P1;SDS_P2;PMS_P1;PMS_P2;Temp;Humidity;BMP_temperature;BMP_pressure;BME280_temperature;BME280_humidity;BME280_pressure;Samples;Min_cycle;Max_cycle;Signal;HPM_P1;HPM_P2
2022/10/28 00:02:10;;;;;;;;;10.00;8.00;;;;;20.42;59.76;100980.78;4955180;28;45663;-77
2022/10/28 00:04:36;;;;;;;;;4.50;3.75;;;;;20.38;59.82;100970.63;4955344;28;45660;-77
2022/10/28 00:07:01;;;;;;;;;9.75;7.25;;;;;20.41;59.97;100975.59;4955122;28;46299;-75
2022/10/28 00:09:27;;;;;;;;;9.00;7.25;;;;;20.40;59.84;100976.63;4954571;28;46059;-75
2022/10/28 00:11:52;;;;;;;;;8.25;7.00;;;;;20.38;59.94;100973.28;4954635;28;45759;-76
2022/10/28 00:14:17;;;;;;;;;5.75;4.75;;;;;20.31;60.23;100961.59;4955146;28;45497;-77
2022/10/28 00:20:05;;;;;;;;;8.00;6.50;;;;;20.35;59.64;100979.75;4952876;28;45701;-78
2022/10/28 00:22:31;;;;;;;;;8.25;7.75;;;;;20.23;60.11;100964.25;4969720;28;45710;-77
2022/10/28 00:24:57;;;;;;;;;9.25;7.75;;;;;20.33;60.06;100983.59;4953537;28;45609;-77
2022/10/28 00:27:22;;;;;;;;;8.00;7.00;;;;;20.22;60.18;100973.22;4954225;28;47103;-77
2022/10/28 00:29:48;;;;;;;;;8.75;8.00;;;;;20.31;60.33;100985.53;4954705;28;46213;-76
2022/10/28 00:35:35;;;;;;;;;12.00;8.00;;;;;20.26;60.18;100975.38;4954768;28;45526;-76
2022/10/28 00:38:00;;;;;;;;;6.75;6.25;;;;;20.27;60.21;100989.53;4954306;28;47455;-75
2022/10/28 00:40:26;;;;;;;;;7.75;7.00;;;;;20.26;59.96;100994.00;4954617;28;45934;-77
2022/10/28 00:42:51;;;;;;;;;8.75;6.75;;;;;20.26;60.22;100990.50;4954328;28;45974;-78
2022/10/28 00:45:16;;;;;;;;;9.00;8.00;;;;;20.23;60.48;100972.22;4954451;28;45620;-77
2022/10/28 00:47:57;;;;;;;;;10.00;8.00;;;;;20.16;60.05;100972.03;4954487;28;45750;-77
2022/10/28 00:50:47;;;;;;;;;6.00;4.50;;;;;20.23;60.14;100980.22;4936980;28;46106;-77
2022/10/28 00:53:24;;;;;;;;;9.00;7.00;;;;;19.93;60.41;100931.88;4954383;28;45773;-75
2022/10/28 00:55:51;;;;;;;;;8.00;7.50;;;;;20.18;60.21;100962.06;4954297;28;45471;-78
2022/10/28 00:58:21;;;;;;;;;7.25;6.00;;;;;20.22;60.19;100967.91;4954190;28;47592;-77
2022/10/28 01:00:47;;;;;;;;;7.75;7.00;;;;;20.11;60.56;100947.75;4955283;28;46052;-78
2022/10/28 01:03:12;;;;;;;;;6.00;5.50;;;;;20.07;60.45;100943.75;4957320;28;45747;-78
2022/10/28 01:05:41;;;;;;;;;7.00;6.50;;;;;20.19;60.46;100960.25;4957997;28;45996;-76
2022/10/28 01:08:07;;;;;;;;;5.50;5.00;;;;;20.17;60.36;100952.41;4957434;28;46623;-79
2022/10/28 01:11:10;;;;;;;;;8.00;7.50;;;;;20.15;60.63;100965.03;4957623;28;46219;-77
2022/10/28 01:13:53;;;;;;;;;8.25;6.50;;;;;20.14;60.47;100968.69;4957370;28;45435;-78
2022/10/28 01:16:32;;;;;;;;;6.50;6.50;;;;;20.06;60.65;100955.38;4957585;28;45843;-77
2022/10/28 01:19:11;;;;;;;;;9.25;8.50;;;;;20.13;60.53;100968.88;4956885;28;47468;-78
2022/10/28 01:22:15;;;;;;;;;8.25;6.75;;;;;20.11;60.65;100961.03;4957206;28;46407;-78
2022/10/28 01:24:42;;;;;;;;;7.75;7.00;;;;;20.08;60.68;100967.50;4957354;28;45709;-77
2022/10/28 01:27:43;;;;;;;;;7.75;6.25;;;;;20.04;60.71;100952.03;4957119;28;45876;-79
2022/10/28 01:30:11;;;;;;;;;10.00;8.00;;;;;20.06;60.86;100963.38;4957311;28;45737;-77
2022/10/28 01:32:52;;;;;;;;;7.00;6.00;;;;;20.05;60.82;100959.88;4957085;28;45650;-76
2022/10/28 01:35:37;;;;;;;;;7.50;5.25;;;;;20.05;60.75;100957.22;4957316;28;45824;-76
2022/10/28 01:38:31;;;;;;;;;7.25;7.00;;;;;20.04;60.67;100954.69;4957257;28;45675;-76
2022/10/28 01:41:21;;;;;;;;;9.00;5.75;;;;;20.02;60.90;100951.38;4954355;28;47474;-76
2022/10/28 01:44:06;;;;;;;;;6.75;6.00;;;;;20.01;60.87;100950.56;4971962;28;47590;-76
2022/10/28 01:50:05;;;;;;;;;9.00;7.00;;;;;19.94;61.13;100938.03;4957079;28;45673;-77
2022/10/28 01:52:31;;;;;;;;;7.75;7.00;;;;;19.96;60.93;100944.88;4956660;28;46508;-74
2022/10/28 01:55:27;;;;;;;;;7.50;6.25;;;;;19.96;60.94;100944.88;4956488;28;46262;-75
2022/10/28 01:57:57;;;;;;;;;9.50;8.00;;;;;19.95;61.15;100945.03;4955202;28;45854;-78
2022/10/28 02:00:23;;;;;;;;;8.00;7.00;;;;;19.89;61.14;100941.19;4956537;28;45628;-75
2022/10/28 02:06:21;;;;;;;;;6.75;6.75;;;;;19.90;60.97;100936.72;4956508;28;45762;-74
2022/10/28 02:09:25;;;;;;;;;9.00;8.50;;;;;19.91;61.05;100947.19;4956580;28;45692;-75
2022/10/28 02:12:25;;;;;;;;;6.25;6.25;;;;;19.89;61.05;100938.53;4933637;28;45654;-76
2022/10/28 02:15:07;;;;;;;;;7.00;6.50;;;;;19.90;61.01;100939.38;4877830;29;46903;-75
2022/10/28 02:17:48;;;;;;;;;6.00;5.75;;;;;19.89;61.22;100940.34;4877804;28;46000;-77
2022/10/28 02:20:32;;;;;;;;;9.50;8.25;;;;;19.87;61.09;100931.69;4877806;29;45633;-75
2022/10/28 02:23:20;;;;;;;;;9.00;8.00;;;;;19.75;61.13;100911.72;4877987;29;45996;-76
2022/10/28 02:26:16;;;;;;;;;8.00;7.00;;;;;19.84;61.23;100926.72;4877611;29;47839;-75
2022/10/28 02:28:59;;;;;;;;;8.25;7.75;;;;;19.82;61.30;100926.88;4877748;29;45839;-76
2022/10/28 02:34:52;;;;;;;;;8.00;7.00;;;;;19.76;61.18;100927.50;4877795;29;45759;-77
2022/10/28 02:37:22;;;;;;;;;9.00;7.00;;;;;19.75;61.27;100919.72;4877560;29;47236;-77
2022/10/28 02:39:54;;;;;;;;;10.50;8.25;;;;;19.75;60.98;100925.88;4877710;29;47683;-77
2022/10/28 02:42:25;;;;;;;;;6.00;6.00;;;;;19.71;61.34;100929.81;4877514;29;45741;-76
2022/10/28 02:45:14;;;;;;;;;8.00;7.00;;;;;19.72;61.41;100920.00;4877678;29;45577;-78
2022/10/28 02:51:11;;;;;;;;;3.25;3.25;;;;;19.66;61.69;100924.97;4935328;28;45855;-76
2022/10/28 02:54:07;;;;;;;;;6.00;5.75;;;;;19.64;61.50;100924.31;4956200;28;45436;-76
2022/10/28 02:56:39;;;;;;;;;9.50;6.00;;;;;19.64;61.31;100924.31;4947835;28;45506;-76
2022/10/28 02:59:10;;;;;;;;;6.25;6.00;;;;;19.60;61.27;100914.97;4938704;28;46469;-76
2022/10/28 03:01:36;;;;;;;;;7.00;6.25;;;;;19.62;61.34;100931.63;4955775;28;47209;-77
2022/10/28 03:04:02;;;;;;;;;7.00;6.00;;;;;19.61;61.49;100919.31;4970656;28;45784;-77
2022/10/28 03:06:27;;;;;;;;;8.00;6.00;;;;;19.61;61.25;100919.31;4955920;28;45848;-78
2022/10/28 03:08:52;;;;;;;;;5.50;5.00;;;;;19.60;61.30;100922.13;4955471;28;46453;-76
2022/10/28 03:11:19;;;;;;;;;7.25;6.25;;;;;19.60;61.39;100909.66;4955484;28;46449;-76
2022/10/28 03:13:44;;;;;;;;;6.75;5.50;;;;;19.56;61.26;100900.34;4956063;28;45482;-77
2022/10/28 03:16:09;;;;;;;;;7.00;6.50;;;;;19.51;61.58;100888.53;4955948;28;45584;-77
2022/10/28 03:21:56;;;;;;;;;5.75;5.00;;;;;19.54;61.66;100899.66;4953659;28;45936;-75
2022/10/28 03:24:22;;;;;;;;;6.50;5.25;;;;;19.52;61.42;100888.38;4955201;28;45656;-76
2022/10/28 03:26:47;;;;;;;;;6.00;6.00;;;;;19.46;61.39;100880.22;4955791;28;45705;-76
2022/10/28 03:29:12;;;;;;;;;7.00;5.50;;;;;19.52;61.57;100891.03;4955566;28;47453;-76
2022/10/28 03:31:38;;;;;;;;;8.25;6.75;;;;;19.46;61.16;100881.03;4955508;28;46463;-78
2022/10/28 03:37:25;;;;;;;;;9.00;6.75;;;;;19.49;61.09;100895.81;4955250;28;45650;-77
2022/10/28 03:39:50;;;;;;;;;11.00;7.25;;;;;19.48;61.34;100894.19;4938198;28;46248;-77
2022/10/28 03:42:16;;;;;;;;;6.00;5.75;;;;;19.42;61.51;100879.66;4954932;28;46155;-77
2022/10/28 03:44:41;;;;;;;;;9.50;7.75;;;;;19.46;61.44;100885.53;4955175;28;45608;-77
2022/10/28 03:50:28;;;;;;;;;9.50;7.50;;;;;19.42;61.36;100876.19;4954745;28;46011;-76
2022/10/28 03:52:54;;;;;;;;;9.00;7.00;;;;;19.43;61.69;100872.53;4954974;28;46261;-77
2022/10/28 03:55:19;;;;;;;;;5.50;5.00;;;;;19.42;61.54;100886.81;4955011;28;45589;-78
2022/10/28 03:57:53;;;;;;;;;6.00;5.50;;;;;19.42;61.51;100884.16;4954891;28;45667;-78
2022/10/28 04:00:19;;;;;;;;;5.50;5.00;;;;;19.26;61.67;100861.00;4938786;28;45680;-76
2022/10/28 04:06:08;;;;;;;;;10.00;7.00;;;;;19.35;61.34;100877.78;4954838;28;45601;-76
2022/10/28 04:08:34;;;;;;;;;9.00;7.75;;;;;19.37;61.43;100878.47;4954797;28;45943;-76
2022/10/28 04:10:59;;;;;;;;;11.00;8.75;;;;;19.35;61.25;100880.44;4954745;28;45509;-77
2022/10/28 04:13:24;;;;;;;;;7.25;7.25;;;;;19.35;61.83;100875.13;4954781;28;47239;-78
2022/10/28 04:16:00;;;;;;;;;12.25;10.00;;;;;19.34;61.88;100869.00;4937469;28;45722;-77
2022/10/28 04:21:47;;;;;;;;;11.00;9.00;;;;;19.32;61.61;100876.31;4954457;28;45527;-78
2022/10/28 04:24:13;;;;;;;;;9.00;8.00;;;;;19.31;61.68;100882.59;4954469;28;46312;-76
2022/10/28 04:26:38;;;;;;;;;7.50;7.00;;;;;19.29;61.58;100881.91;4954959;28;45678;-76
2022/10/28 04:29:06;;;;;;;;;8.50;7.50;;;;;19.16;61.69;100862.94;4954813;28;45706;-78
2022/10/28 04:31:32;;;;;;;;;8.75;8.50;;;;;19.15;61.79;100853.31;4953176;28;46680;-76
2022/10/28 04:37:21;;;;;;;;;11.25;8.00;;;;;19.25;61.37;100878.75;4957879;28;45594;-77
2022/10/28 04:39:46;;;;;;;;;8.75;7.75;;;;;19.19;61.85;100871.41;4936153;28;45547;-78
2022/10/28 04:42:37;;;;;;;;;8.00;8.00;;;;;18.98;61.70;100833.78;4936420;28;46570;-77
2022/10/28 04:45:03;;;;;;;;;7.00;7.00;;;;;19.05;61.49;100847.28;4936128;28;46181;-77
2022/10/28 04:47:31;;;;;;;;;8.00;6.50;;;;;19.25;61.53;100875.25;4936387;28;45713;-77
2022/10/28 04:53:19;;;;;;;;;8.00;6.75;;;;;19.22;61.71;100872.91;4936404;28;45963;-76
2022/10/28 04:55:44;;;;;;;;;9.00;7.25;;;;;19.21;61.75;100874.75;4936315;28;46376;-77
2022/10/28 04:58:10;;;;;;;;;9.00;7.25;;;;;19.18;61.85;100869.75;4936453;28;45678;-77
2022/10/28 05:00:35;;;;;;;;;7.00;5.50;;;;;19.20;61.51;100870.44;4936321;28;45730;-75
2022/10/28 05:03:01;;;;;;;;;8.00;7.75;;;;;19.21;61.37;100873.94;4935853;28;47578;-76
2022/10/28 05:05:26;;;;;;;;;8.50;7.75;;;;;19.18;61.51;100868.91;4936123;28;46062;-77
2022/10/28 05:07:52;;;;;;;;;7.75;7.50;;;;;19.20;61.66;100872.25;4951863;28;45788;-77
2022/10/28 05:10:17;;;;;;;;;7.50;6.50;;;;;19.16;61.52;100863.75;4942851;28;45652;-76
2022/10/28 05:12:44;;;;;;;;;9.50;7.25;;;;;19.16;61.56;100868.25;4957431;28;46291;-75
2022/10/28 05:15:11;;;;;;;;;7.50;6.00;;;;;19.18;61.14;100868.91;4957466;28;46195;-78
2022/10/28 05:17:42;;;;;;;;;7.50;5.75;;;;;19.18;61.54;100876.88;4957760;28;45799;-76
2022/10/28 05:23:29;;;;;;;;;8.75;7.00;;;;;19.14;61.56;100871.06;4955617;28;45978;-77
2022/10/28 05:25:55;;;;;;;;;8.50;7.00;;;;;19.14;61.30;100879.03;4957430;28;46372;-78
2022/10/28 05:28:20;;;;;;;;;6.00;6.00;;;;;19.13;61.09;100868.56;4958743;28;45600;-75
2022/10/28 05:30:46;;;;;;;;;9.50;7.50;;;;;19.12;61.28;100867.72;4958285;28;45757;-79
2022/10/28 05:33:12;;;;;;;;;6.50;6.25;;;;;19.11;61.82;100873.22;4959564;28;45581;-83
2022/10/28 05:38:59;;;;;;;;;8.50;6.75;;;;;19.09;61.37;100877.84;4958847;28;45633;-83
2022/10/28 05:41:24;;;;;;;;;8.00;6.50;;;;;19.06;61.54;100867.50;4959305;28;45631;-81
2022/10/28 05:43:50;;;;;;;;;8.00;7.00;;;;;19.09;61.41;100873.34;4960023;28;45663;-80
2022/10/28 05:46:15;;;;;;;;;7.75;7.25;;;;;19.10;61.63;100871.53;4957352;28;45874;-83
2022/10/28 05:48:41;;;;;;;;;8.75;7.00;;;;;19.09;61.25;100870.69;4956467;28;45668;-81
2022/10/28 05:51:06;;;;;;;;;7.50;6.25;;;;;19.09;61.61;100865.38;4957543;28;45747;-82
2022/10/28 05:53:32;;;;;;;;;7.25;7.00;;;;;19.05;61.47;100865.88;4957778;28;45679;-79
2022/10/28 05:55:57;;;;;;;;;7.00;6.00;;;;;19.08;61.47;100874.34;4971591;28;46111;-76
2022/10/28 05:58:22;;;;;;;;;9.00;8.00;;;;;19.07;61.62;100883.28;4956098;28;45656;-79
2022/10/28 06:00:49;;;;;;;;;14.25;9.00;;;;;19.04;61.39;100866.84;4956260;28;45625;-72
2022/10/28 06:03:15;;;;;;;;;10.50;8.50;;;;;19.07;61.12;100869.19;4954734;28;47267;-72
2022/10/28 06:09:02;;;;;;;;;8.00;7.25;;;;;19.06;61.59;100876.31;4956504;28;45677;-76
2022/10/28 06:11:28;;;;;;;;;10.25;7.75;;;;;18.92;61.57;100863.63;4956496;28;45820;-75
2022/10/28 06:13:53;;;;;;;;;9.00;8.00;;;;;19.05;61.89;100874.66;4956178;28;46302;-74
2022/10/28 06:16:19;;;;;;;;;6.50;6.00;;;;;18.82;61.44;100853.09;4956483;28;45658;-72
2022/10/28 06:18:44;;;;;;;;;10.50;8.00;;;;;18.95;61.52;100870.47;4955654;28;45505;-75
2022/10/28 06:24:35;;;;;;;;;8.50;6.00;;;;;18.95;62.02;100876.56;4953416;28;46082;-74
2022/10/28 06:27:00;;;;;;;;;8.75;8.50;;;;;19.04;61.31;100893.41;4939393;28;46372;-74
2022/10/28 06:29:26;;;;;;;;;7.25;6.50;;;;;19.04;61.43;100896.06;4956879;28;45525;-77
2022/10/28 06:31:51;;;;;;;;;11.75;8.00;;;;;19.01;61.79;100891.03;4956251;28;45932;-75
2022/10/28 06:34:16;;;;;;;;;8.75;7.00;;;;;19.01;61.56;100897.19;4956202;28;46231;-77
2022/10/28 06:36:42;;;;;;;;;10.75;7.00;;;;;19.02;61.33;100906.00;4956204;28;46025;-76
2022/10/28 06:39:07;;;;;;;;;7.75;6.75;;;;;19.02;61.37;100906.84;4956189;28;45652;-74
2022/10/28 06:41:33;;;;;;;;;8.75;7.00;;;;;19.02;61.72;100906.84;4956221;28;45506;-75
2022/10/28 06:43:58;;;;;;;;;8.00;7.00;;;;;19.01;61.82;100910.47;4955775;28;47757;-74
2022/10/28 06:46:23;;;;;;;;;7.75;7.00;;;;;18.90;61.50;100892.13;4956202;28;45923;-76
2022/10/28 06:48:49;;;;;;;;;11.50;7.00;;;;;19.01;61.35;100920.25;4956239;28;45641;-75
2022/10/28 06:54:36;;;;;;;;;7.25;6.00;;;;;19.02;61.16;100927.25;4955159;28;45920;-77
2022/10/28 06:57:01;;;;;;;;;7.00;7.00;;;;;19.00;61.17;100935.34;4952222;28;46072;-77
2022/10/28 06:59:26;;;;;;;;;6.75;4.00;;;;;19.01;61.35;100936.19;4954461;28;45526;-74
2022/10/28 07:01:52;;;;;;;;;8.25;7.50;;;;;19.01;61.53;100952.13;4955342;28;45454;-75
2022/10/28 07:04:17;;;;;;;;;8.50;8.00;;;;;18.98;61.59;100945.31;4955405;28;47245;-74
2022/10/28 07:10:05;;;;;;;;;6.50;6.00;;;;;18.99;61.30;100959.44;4955369;28;45579;-75
2022/10/28 07:12:30;;;;;;;;;7.50;6.00;;;;;19.00;61.12;100966.41;4955081;28;45831;-74
2022/10/28 07:14:56;;;;;;;;;9.00;7.50;;;;;19.01;60.92;100957.44;4954966;28;47458;-73
2022/10/28 07:17:21;;;;;;;;;10.25;8.25;;;;;19.00;61.03;100967.22;4955390;28;45641;-77
2022/10/28 07:19:46;;;;;;;;;9.00;7.75;;;;;18.98;61.01;100961.25;4954971;28;45570;-77
2022/10/28 07:22:12;;;;;;;;;10.00;7.00;;;;;19.01;60.92;100966.25;4955290;28;45479;-75
2022/10/28 07:24:37;;;;;;;;;10.25;7.75;;;;;19.06;61.13;100971.09;4954729;28;46634;-78
2022/10/28 07:27:03;;;;;;;;;7.25;7.00;;;;;19.08;60.88;100980.59;4955445;28;46306;-76
2022/10/28 07:29:28;;;;;;;;;8.50;7.25;;;;;19.05;60.91;100970.28;4955277;28;45613;-74
2022/10/28 07:31:54;;;;;;;;;8.50;7.50;;;;;19.12;61.12;100981.09;4938192;28;45873;-77
2022/10/28 07:34:20;;;;;;;;;7.75;6.50;;;;;19.11;60.92;100972.28;4954427;28;45898;-73
2022/10/28 07:40:07;;;;;;;;;9.00;7.50;;;;;19.21;60.33;100988.16;4954930;28;45810;-74
2022/10/28 07:42:33;;;;;;;;;8.25;7.25;;;;;19.22;60.60;100989.78;4955241;28;45875;-74
2022/10/28 07:44:59;;;;;;;;;9.25;6.75;;;;;19.20;60.50;100979.34;4954167;28;46539;-75
2022/10/28 07:47:24;;;;;;;;;10.75;8.00;;;;;19.20;60.49;100989.13;4954446;28;47147;-75
2022/10/28 07:49:50;;;;;;;;;9.75;8.00;;;;;19.33;60.03;101002.00;4937576;28;45665;-75
2022/10/28 07:55:38;;;;;;;;;10.25;7.00;;;;;19.41;60.07;101012.69;4954424;28;45956;-75
2022/10/28 07:58:03;;;;;;;;;7.75;7.00;;;;;19.41;60.11;101008.22;4937560;28;46474;-75
2022/10/28 08:00:29;;;;;;;;;10.00;8.50;;;;;19.42;60.24;101015.19;4954575;28;45652;-75
2022/10/28 08:02:54;;;;;;;;;8.00;8.00;;;;;19.45;59.81;101009.59;4954976;28;45637;-75
2022/10/28 08:05:19;;;;;;;;;8.25;7.00;;;;;19.54;59.53;101013.16;4954860;28;45601;-75
2022/10/28 08:07:46;;;;;;;;;8.50;8.00;;;;;19.56;59.94;101021.78;4953872;28;46075;-73
2022/10/28 08:10:12;;;;;;;;;10.00;8.00;;;;;19.60;59.78;101045.25;4956806;28;45688;-76
2022/10/28 08:12:37;;;;;;;;;8.00;7.75;;;;;19.62;59.73;101032.63;4958737;28;45786;-76
2022/10/28 08:15:03;;;;;;;;;12.50;8.25;;;;;19.65;59.59;101031.47;4958053;28;47428;-75
2022/10/28 08:17:29;;;;;;;;;7.50;7.00;;;;;19.67;59.36;101035.66;4957864;28;46198;-75
2022/10/28 08:19:54;;;;;;;;;9.00;7.25;;;;;19.69;59.11;101043.47;4958256;28;45587;-73
2022/10/28 08:25:50;;;;;;;;;9.50;7.75;;;;;19.70;59.35;101035.31;4955599;28;45728;-76
2022/10/28 08:28:16;;;;;;;;;10.00;7.00;;;;;19.78;59.09;101058.47;4958225;28;45931;-75
2022/10/28 08:30:41;;;;;;;;;8.50;7.50;;;;;19.81;59.12;101058.16;4958360;28;45642;-75
2022/10/28 08:33:06;;;;;;;;;11.50;8.00;;;;;19.85;59.11;101061.34;4957908;28;45479;-74
2022/10/28 08:35:34;;;;;;;;;9.00;7.50;;;;;19.88;58.90;101051.22;4957445;28;45854;-74
2022/10/28 08:37:59;;;;;;;;;7.25;7.00;;;;;19.87;59.00;101046.06;4957368;28;46398;-74
2022/10/28 08:40:34;;;;;;;;;10.00;8.00;;;;;19.94;58.66;101058.56;4958085;28;45645;-74
2022/10/28 08:43:12;;;;;;;;;8.25;7.50;;;;;19.97;58.79;101052.13;4958276;28;45476;-73
2022/10/28 08:45:46;;;;;;;;;11.25;9.25;;;;;20.00;58.59;101065.91;4957511;28;47384;-74
2022/10/28 08:48:26;;;;;;;;;10.50;5.75;;;;;20.02;58.58;101074.59;4956796;28;46500;-75
2022/10/28 08:51:00;;;;;;;;;8.75;8.00;;;;;20.04;58.50;101069.94;4957873;28;45675;-73
2022/10/28 08:53:35;;;;;;;;;8.75;7.75;;;;;20.01;58.45;101056.13;4957713;28;45627;-72
2022/10/28 08:56:14;;;;;;;;;10.50;9.00;;;;;20.11;58.26;101081.59;4957833;28;45792;-75
2022/10/28 08:58:43;;;;;;;;;10.75;9.00;;;;;20.13;58.15;101071.63;4972278;28;47649;-73
2022/10/28 09:01:19;;;;;;;;;9.25;7.75;;;;;20.18;58.55;101080.97;4957741;28;45697;-73
2022/10/28 09:03:47;;;;;;;;;7.75;6.00;;;;;20.18;58.20;101088.97;4957547;28;45939;-73
2022/10/28 09:06:13;;;;;;;;;8.00;7.00;;;;;20.20;57.99;101098.44;4957181;28;46524;-75
2022/10/28 09:08:41;;;;;;;;;8.00;7.50;;;;;20.21;57.16;101089.47;4957581;28;46108;-74
2022/10/28 09:11:09;;;;;;;;;5.50;5.00;;;;;20.25;57.27;101100.63;4957603;28;45659;-74
2022/10/28 09:14:07;;;;;;;;;7.75;7.00;;;;;20.27;57.39;101091.50;4957416;28;45597;-75
2022/10/28 09:17:02;;;;;;;;;10.75;6.25;;;;;20.29;57.05;101097.50;4957053;28;45543;-73
2022/10/28 09:19:48;;;;;;;;;8.25;7.25;;;;;20.34;57.08;101097.03;4957034;28;47205;-72
2022/10/28 09:22:50;;;;;;;;;10.00;9.25;;;;;20.37;56.96;101100.22;4955822;28;45721;-73
2022/10/28 09:25:47;;;;;;;;;5.25;4.75;;;;;20.40;56.78;101104.41;4957352;28;45817;-73
2022/10/28 09:28:43;;;;;;;;;9.25;8.50;;;;;20.44;57.14;101117.22;4971867;28;47656;-73
2022/10/28 09:31:29;;;;;;;;;11.25;10.00;;;;;20.48;56.87;101123.88;4939074;28;47386;-73
2022/10/28 09:34:06;;;;;;;;;7.50;6.25;;;;;20.51;56.86;101136.06;4971716;28;45736;-73
2022/10/28 09:40:12;;;;;;;;;6.50;6.00;;;;;20.60;57.02;101139.56;4956384;28;46096;-74
2022/10/28 09:42:43;;;;;;;;;7.50;6.00;;;;;20.66;56.31;101150.41;4956960;28;46536;-74
2022/10/28 09:45:18;;;;;;;;;7.50;6.50;;;;;20.62;56.17;101149.03;4939862;28;45687;-75
2022/10/28 09:47:54;;;;;;;;;9.25;7.50;;;;;20.63;56.21;101139.22;4971507;28;45601;-74
2022/10/28 09:50:27;;;;;;;;;7.25;7.00;;;;;20.72;56.71;101148.94;4956853;28;45562;-74
2022/10/28 09:56:14;;;;;;;;;8.00;6.75;;;;;20.84;56.22;101135.16;4956607;28;45854;-75
2022/10/28 09:58:47;;;;;;;;;9.75;6.50;;;;;20.88;56.71;101119.69;4956659;28;45510;-75
2022/10/28 10:01:18;;;;;;;;;7.50;6.00;;;;;20.94;56.38;101121.69;4956590;28;46510;-73
2022/10/28 10:03:50;;;;;;;;;11.75;8.25;;;;;20.96;56.07;101122.34;4956433;28;45605;-75
2022/10/28 10:13:06;;;;;;;;;7.25;7.25;;;;;21.02;56.35;101147.50;4877768;28;46070;-75
2022/10/28 10:15:44;;;;;;;;;7.00;6.75;;;;;21.07;56.52;101148.69;4877889;29;46222;-74
2022/10/28 10:18:21;;;;;;;;;9.75;8.00;;;;;21.09;56.11;101165.34;4877439;28;46227;-79
2022/10/28 10:20:50;;;;;;;;;7.50;6.75;;;;;21.11;56.33;101162.50;4876275;29;45745;-80
2022/10/28 10:23:25;;;;;;;;;7.75;6.75;;;;;21.13;56.14;101168.53;4877798;28;46798;-80
2022/10/28 10:25:57;;;;;;;;;9.00;9.00;;;;;21.15;56.43;101182.56;4877281;29;46501;-80
2022/10/28 10:28:25;;;;;;;;;9.75;7.25;;;;;21.18;56.45;101175.06;4877763;28;45718;-79
2022/10/28 10:30:57;;;;;;;;;7.75;5.75;;;;;21.13;56.12;101163.19;4878056;29;45653;-79
2022/10/28 10:33:27;;;;;;;;;8.50;6.00;;;;;21.20;55.99;101172.25;4862206;28;47769;-79
2022/10/28 10:36:14;;;;;;;;;9.50;8.00;;;;;21.27;56.21;101170.56;4861897;29;48078;-81
2022/10/28 10:38:53;;;;;;;;;10.50;8.00;;;;;21.28;56.24;101165.06;4866039;28;45748;-82
2022/10/28 10:41:39;;;;;;;;;6.50;6.25;;;;;21.32;55.90;101170.94;4937193;28;45589;-80
2022/10/28 10:44:20;;;;;;;;;8.50;7.75;;;;;21.35;56.47;101179.44;4877281;29;47390;-81
2022/10/28 10:47:03;;;;;;;;;8.75;6.00;;;;;21.38;56.53;101175.56;4876873;29;45674;-80
2022/10/28 10:49:29;;;;;;;;;10.75;7.75;;;;;21.44;56.02;101174.09;4877433;29;45810;-80
2022/10/28 10:55:26;;;;;;;;;9.00;8.00;;;;;21.50;56.40;101194.75;4877210;29;45832;-78
2022/10/28 10:57:52;;;;;;;;;10.00;7.00;;;;;21.52;55.80;101195.44;4877789;29;46314;-79
2022/10/28 11:00:22;;;;;;;;;13.25;7.25;;;;;21.56;56.31;101196.78;4876974;29;45770;-81
2022/10/28 11:02:50;;;;;;;;;6.50;3.00;;;;;21.49;55.98;101177.91;4877512;29;45962;-83
2022/10/28 11:05:21;;;;;;;;;9.25;7.00;;;;;21.64;56.22;101208.28;4877338;29;47815;-81
2022/10/28 11:11:21;;;;;;;;;8.50;7.25;;;;;21.70;56.23;101204.94;4878697;29;45656;-82
2022/10/28 11:14:00;;;;;;;;;14.50;9.00;;;;;21.65;56.38;101191.25;4879083;29;45713;-82
2022/10/28 11:16:26;;;;;;;;;9.75;8.50;;;;;21.80;55.67;101214.63;4879115;29;46827;-80
2022/10/28 11:18:52;;;;;;;;;7.00;6.00;;;;;21.81;55.93;101219.78;4878625;29;46443;-81
2022/10/28 11:22:05;;;;;;;;;7.75;6.25;;;;;21.83;56.22;101220.44;4911322;28;45701;-84
2022/10/28 11:28:34;;;;;;;;;7.25;6.00;;;;;21.92;55.93;101234.63;4896574;29;46200;-82
2022/10/28 11:31:29;;;;;;;;;9.50;9.00;;;;;21.92;56.28;101229.28;4897769;29;45996;-82
2022/10/28 11:34:08;;;;;;;;;9.25;7.75;;;;;22.00;55.60;101224.81;4899197;29;45718;-84
2022/10/28 11:36:47;;;;;;;;;8.00;7.50;;;;;21.77;56.25;101184.59;4899751;29;45629;-84
2022/10/28 11:42:58;;;;;;;;;8.25;7.50;;;;;22.11;56.07;101226.31;4896629;29;45804;-82
2022/10/28 11:45:30;;;;;;;;;10.75;9.75;;;;;22.12;55.48;101228.81;4895288;29;45739;-78
2022/10/28 11:48:11;;;;;;;;;9.00;7.00;;;;;22.03;55.97;101205.78;4896090;29;45784;-80
2022/10/28 11:50:48;;;;;;;;;8.25;8.25;;;;;22.19;55.95;101228.94;4896470;29;46595;-82
2022/10/28 11:53:22;;;;;;;;;11.25;7.75;;;;;22.23;55.49;101226.78;4895709;28;46409;-79
2022/10/28 11:55:58;;;;;;;;;8.00;7.25;;;;;22.27;56.03;101220.09;4895588;29;45760;-80
2022/10/28 11:58:38;;;;;;;;;11.00;8.25;;;;;22.31;55.80;101214.25;4895441;29;45810;-80
2022/10/28 12:01:03;;;;;;;;;9.00;8.25;;;;;22.36;55.64;101211.06;4922088;28;47433;-82
2022/10/28 12:04:06;;;;;;;;;9.25;8.50;;;;;22.40;56.04;101212.41;4935750;28;46234;-79
2022/10/28 12:07:03;;;;;;;;;8.50;6.75;;;;;22.41;55.57;101196.19;4935704;28;45540;-78
2022/10/28 12:10:10;;;;;;;;;8.25;5.00;;;;;22.43;55.40;101207.56;4933785;28;46033;-85
2022/10/28 12:12:45;;;;;;;;;9.00;8.50;;;;;22.39;55.98;101197.38;4895274;29;45693;-77
2022/10/28 12:15:37;;;;;;;;;9.00;7.00;;;;;22.50;55.48;101197.03;4895021;29;46727;-82
2022/10/28 12:18:21;;;;;;;;;11.25;8.00;;;;;22.56;55.56;101207.03;4885342;29;47157;-79
2022/10/28 12:21:01;;;;;;;;;8.75;7.00;;;;;22.41;55.62;101166.00;4895465;29;45629;-82
2022/10/28 12:23:30;;;;;;;;;11.00;7.00;;;;;22.64;55.65;101209.66;4894974;29;45786;-80
2022/10/28 12:25:59;;;;;;;;;8.25;7.00;;;;;22.67;55.80;101214.66;4894810;29;46209;-80
2022/10/28 12:28:39;;;;;;;;;11.25;9.00;;;;;22.73;55.61;101223.84;4895128;29;45678;-78
2022/10/28 12:31:20;;;;;;;;;8.25;7.00;;;;;22.71;55.02;101216.00;4895758;29;45948;-80
2022/10/28 12:33:51;;;;;;;;;11.00;8.50;;;;;22.81;55.35;101232.66;4894939;29;45600;-80
2022/10/28 12:36:33;;;;;;;;;7.50;7.00;;;;;22.87;55.67;101215.94;4895088;29;45801;-82
2022/10/28 12:39:19;;;;;;;;;7.50;6.00;;;;;22.92;55.56;101220.75;4895004;29;45623;-82
2022/10/28 12:41:54;;;;;;;;;9.00;8.00;;;;;22.95;55.59;101215.06;4895215;29;45799;-79
2022/10/28 12:44:22;;;;;;;;;10.50;8.25;;;;;23.01;55.38;101219.72;4894696;29;46457;-81
2022/10/28 12:47:04;;;;;;;;;6.00;6.00;;;;;23.06;55.69;101214.66;4894981;29;46556;-80
2022/10/28 12:50:00;;;;;;;;;9.50;8.75;;;;;23.10;55.24;101210.66;4917846;28;45585;-81
2022/10/28 12:52:30;;;;;;;;;9.50;8.00;;;;;23.05;54.42;101188.13;4935138;28;45703;-81
2022/10/28 12:55:17;;;;;;;;;8.00;7.00;;;;;23.18;55.10;101207.09;4935007;28;45773;-79
2022/10/28 12:57:48;;;;;;;;;7.25;6.75;;;;;23.22;55.21;101208.38;4937452;28;46224;-81
2022/10/28 13:00:22;;;;;;;;;10.00;8.25;;;;;23.25;55.30;101208.88;4938473;28;45732;-79
2022/10/28 13:02:58;;;;;;;;;11.75;9.00;;;;;23.30;55.44;101214.53;4938347;28;45541;-81
2022/10/28 13:05:38;;;;;;;;;7.50;7.00;;;;;23.34;55.04;101215.00;4938169;28;46725;-82
2022/10/28 13:11:34;;;;;;;;;8.00;7.00;;;;;23.42;54.76;101215.81;4938036;28;45628;-84
2022/10/28 13:14:30;;;;;;;;;8.00;6.75;;;;;23.48;54.91;101218.81;4938184;28;45889;-78
2022/10/28 13:17:22;;;;;;;;;3.00;2.00;;;;;23.53;54.46;101219.94;4937800;28;45881;-80
2022/10/28 13:20:06;;;;;;;;;9.25;6.00;;;;;23.57;54.48;101218.56;4938166;28;45989;-80
2022/10/28 13:23:00;;;;;;;;;9.25;7.75;;;;;23.61;54.86;101213.69;4938083;28;45673;-81
2022/10/28 13:28:51;;;;;;;;;8.50;7.50;;;;;23.61;54.73;101197.63;4956460;28;45955;-80
2022/10/28 13:31:18;;;;;;;;;8.25;7.25;;;;;23.64;54.47;101203.47;4957143;28;46141;-79
2022/10/28 13:33:53;;;;;;;;;11.75;10.25;;;;;23.71;54.89;101214.25;4957232;28;45562;-80
2022/10/28 13:36:24;;;;;;;;;8.75;7.75;;;;;23.73;54.67;101220.28;4957159;28;45775;-80
2022/10/28 13:38:59;;;;;;;;;10.75;9.00;;;;;23.73;54.46;101212.25;4956969;28;46347;-81